sensor_id;sensor_type;location;lat;lon;timestamp;temperature;humidity
9980;DHT22;5030;51.532;6.766;2022-08-03T00:01:57;18.90;99.90
9980;DHT22;5030;51.532;6.766;2022-08-03T00:04:23;18.90;99.90
9980;DHT22;5030;51.532;6.766;2022-08-03T00:06:49;18.90;99.90
9980;DHT22;5030;51.532;6.766;2022-08-03T00:09:15;18.70;99.90
9980;DHT22;5030;51.532;6.766;2022-08-03T00:11:40;18.70;99.90
9980;DHT22;5030;51.532;6.766;2022-08-03T00:14:07;18.70;99.90
9980;DHT22;5030;51.532;6.766;2022-08-03T00:16:33;18.70;99.90
9980;DHT22;5030;51.532;6.766;2022-08-03T00:18:59;18.60;99.90
9980;DHT22;5030;51.532;6.766;2022-08-03T00:21:25;18.60;99.90
9980;DHT22;5030;51.532;6.766;2022-08-03T00:23:50;18.50;99.90
9980;DHT22;5030;51.532;6.766;2022-08-03T00:26:16;18.50;99.90
9980;DHT22;5030;51.532;6.766;2022-08-03T00:28:42;18.40;99.90
9980;DHT22;5030;51.532;6.766;2022-08-03T00:31:07;18.40;99.90
9980;DHT22;5030;51.532;6.766;2022-08-03T00:33:33;18.40;99.90
9980;DHT22;5030;51.532;6.766;2022-08-03T00:35:59;18.30;99.90
9980;DHT22;5030;51.532;6.766;2022-08-03T00:38:24;18.30;99.90
9980;DHT22;5030;51.532;6.766;2022-08-03T00:40:50;18.30;99.90
9980;DHT22;5030;51.532;6.766;2022-08-03T00:43:16;18.30;99.90
9980;DHT22;5030;51.532;6.766;2022-08-03T00:45:42;18.30;99.90
9980;DHT22;5030;51.532;6.766;2022-08-03T00:48:10;18.30;99.90
9980;DHT22;5030;51.532;6.766;2022-08-03T00:50:39;18.30;99.90
9980;DHT22;5030;51.532;6.766;2022-08-03T00:53:07;18.30;99.90
9980;DHT22;5030;51.532;6.766;2022-08-03T00:55:35;18.20;99.90
9980;DHT22;5030;51.532;6.766;2022-08-03T00:58:02;18.20;99.90
9980;DHT22;5030;51.532;6.766;2022-08-03T01:00:33;18.10;99.90
9980;DHT22;5030;51.532;6.766;2022-08-03T01:03:01;18.10;99.90
9980;DHT22;5030;51.532;6.766;2022-08-03T01:05:27;18.00;99.90
9980;DHT22;5030;51.532;6.766;2022-08-03T01:16:30;18.00;99.90
9980;DHT22;5030;51.532;6.766;2022-08-03T01:27:17;18.00;99.90
9980;DHT22;5030;51.532;6.766;2022-08-03T01:29:59;18.00;99.90
9980;DHT22;5030;51.532;6.766;2022-08-03T01:35:18;18.00;99.90
9980;DHT22;5030;51.532;6.766;2022-08-03T01:37:57;18.00;99.90
9980;DHT22;5030;51.532;6.766;2022-08-03T01:40:26;18.00;99.90
9980;DHT22;5030;51.532;6.766;2022-08-03T01:42:55;18.00;99.90
9980;DHT22;5030;51.532;6.766;2022-08-03T01:45:22;18.00;99.90
9980;DHT22;5030;51.532;6.766;2022-08-03T01:47:49;17.90;99.90
9980;DHT22;5030;51.532;6.766;2022-08-03T01:50:20;17.90;99.90
9980;DHT22;5030;51.532;6.766;2022-08-03T01:52:46;17.90;99.90
9980;DHT22;5030;51.532;6.766;2022-08-03T01:55:16;17.90;99.90
9980;DHT22;5030;51.532;6.766;2022-08-03T01:57:44;17.90;99.90
9980;DHT22;5030;51.532;6.766;2022-08-03T02:00:12;17.90;99.90
9980;DHT22;5030;51.532;6.766;2022-08-03T02:02:39;17.80;99.90
9980;DHT22;5030;51.532;6.766;2022-08-03T02:05:08;17.80;99.90
9980;DHT22;5030;51.532;6.766;2022-08-03T02:07:35;17.80;99.90
9980;DHT22;5030;51.532;6.766;2022-08-03T02:10:04;17.80;99.90
9980;DHT22;5030;51.532;6.766;2022-08-03T02:12:31;17.70;99.90
9980;DHT22;5030;51.532;6.766;2022-08-03T02:14:58;17.70;99.90
9980;DHT22;5030;51.532;6.766;2022-08-03T02:17:25;17.70;99.90
9980;DHT22;5030;51.532;6.766;2022-08-03T02:19:52;17.70;99.90
9980;DHT22;5030;51.532;6.766;2022-08-03T02:22:19;17.70;99.90
9980;DHT22;5030;51.532;6.766;2022-08-03T02:24:46;17.70;99.90
9980;DHT22;5030;51.532;6.766;2022-08-03T02:27:38;17.70;99.90
9980;DHT22;5030;51.532;6.766;2022-08-03T02:30:07;17.70;99.90
9980;DHT22;5030;51.532;6.766;2022-08-03T02:32:36;17.70;99.90
9980;DHT22;5030;51.532;6.766;2022-08-03T02:35:05;17.70;99.90
9980;DHT22;5030;51.532;6.766;2022-08-03T02:37:34;17.80;99.90
9980;DHT22;5030;51.532;6.766;2022-08-03T02:40:02;17.80;99.90
9980;DHT22;5030;51.532;6.766;2022-08-03T02:42:29;17.80;99.90
9980;DHT22;5030;51.532;6.766;2022-08-03T02:44:58;17.70;99.90
9980;DHT22;5030;51.532;6.766;2022-08-03T02:47:27;17.70;99.90
9980;DHT22;5030;51.532;6.766;2022-08-03T02:49:54;17.70;99.90
9980;DHT22;5030;51.532;6.766;2022-08-03T02:52:24;17.60;99.90
9980;DHT22;5030;51.532;6.766;2022-08-03T02:54:53;17.60;99.90
9980;DHT22;5030;51.532;6.766;2022-08-03T02:57:21;17.50;99.90
9980;DHT22;5030;51.532;6.766;2022-08-03T02:59:48;17.50;99.90
9980;DHT22;5030;51.532;6.766;2022-08-03T03:02:15;17.50;99.90
9980;DHT22;5030;51.532;6.766;2022-08-03T03:04:43;17.40;99.90
9980;DHT22;5030;51.532;6.766;2022-08-03T03:07:14;17.30;99.90
9980;DHT22;5030;51.532;6.766;2022-08-03T03:09:40;17.30;99.90
9980;DHT22;5030;51.532;6.766;2022-08-03T03:12:07;17.30;99.90
9980;DHT22;5030;51.532;6.766;2022-08-03T03:14:35;17.30;99.90
9980;DHT22;5030;51.532;6.766;2022-08-03T03:17:02;17.30;99.90
9980;DHT22;5030;51.532;6.766;2022-08-03T03:19:30;17.20;99.90
9980;DHT22;5030;51.532;6.766;2022-08-03T03:22:00;17.10;99.90
9980;DHT22;5030;51.532;6.766;2022-08-03T03:24:28;17.10;99.90
9980;DHT22;5030;51.532;6.766;2022-08-03T03:26:54;17.10;99.90
9980;DHT22;5030;51.532;6.766;2022-08-03T03:29:20;17.10;99.90
9980;DHT22;5030;51.532;6.766;2022-08-03T03:31:47;17.10;12.50
9980;DHT22;5030;51.532;6.766;2022-08-03T03:34:13;17.10;99.90
9980;DHT22;5030;51.532;6.766;2022-08-03T03:36:39;17.10;44.00
9980;DHT22;5030;51.532;6.766;2022-08-03T03:39:05;17.10;99.90
9980;DHT22;5030;51.532;6.766;2022-08-03T03:41:31;17.00;99.90
9980;DHT22;5030;51.532;6.766;2022-08-03T03:43:57;17.00;99.90
9980;DHT22;5030;51.532;6.766;2022-08-03T03:46:23;17.00;99.90
9980;DHT22;5030;51.532;6.766;2022-08-03T03:48:49;17.10;99.90
9980;DHT22;5030;51.532;6.766;2022-08-03T03:51:15;17.00;99.90
9980;DHT22;5030;51.532;6.766;2022-08-03T03:53:54;17.00;99.90
9980;DHT22;5030;51.532;6.766;2022-08-03T03:56:20;17.10;99.90
9980;DHT22;5030;51.532;6.766;2022-08-03T03:58:46;17.20;99.90
9980;DHT22;5030;51.532;6.766;2022-08-03T04:01:12;17.10;99.90
9980;DHT22;5030;51.532;6.766;2022-08-03T04:03:38;17.20;99.90
9980;DHT22;5030;51.532;6.766;2022-08-03T04:06:03;17.20;99.90
9980;DHT22;5030;51.532;6.766;2022-08-03T04:08:47;17.20;99.90
9980;DHT22;5030;51.532;6.766;2022-08-03T04:11:27;17.20;99.90
9980;DHT22;5030;51.532;6.766;2022-08-03T04:16:25;17.20;99.90
9980;DHT22;5030;51.532;6.766;2022-08-03T04:18:56;17.20;99.90
9980;DHT22;5030;51.532;6.766;2022-08-03T04:21:24;17.30;99.90
9980;DHT22;5030;51.532;6.766;2022-08-03T04:23:52;17.30;99.90
9980;DHT22;5030;51.532;6.766;2022-08-03T04:26:22;17.40;99.90
9980;DHT22;5030;51.532;6.766;2022-08-03T04:28:49;17.40;99.90
9980;DHT22;5030;51.532;6.766;2022-08-03T04:31:17;17.40;99.90
9980;DHT22;5030;51.532;6.766;2022-08-03T04:33:45;17.40;99.90
9980;DHT22;5030;51.532;6.766;2022-08-03T04:36:15;17.50;99.90
9980;DHT22;5030;51.532;6.766;2022-08-03T04:41:25;17.50;1.00
9980;DHT22;5030;51.532;6.766;2022-08-03T04:43:57;17.60;1.00
9980;DHT22;5030;51.532;6.766;2022-08-03T04:46:26;17.60;1.00
9980;DHT22;5030;51.532;6.766;2022-08-03T04:48:54;17.70;99.90
9980;DHT22;5030;51.532;6.766;2022-08-03T04:51:20;17.70;99.90
9980;DHT22;5030;51.532;6.766;2022-08-03T04:53:46;17.80;99.90
9980;DHT22;5030;51.532;6.766;2022-08-03T04:56:12;17.90;99.90
9980;DHT22;5030;51.532;6.766;2022-08-03T04:58:38;17.90;99.90
9980;DHT22;5030;51.532;6.766;2022-08-03T05:01:03;18.00;99.90
9980;DHT22;5030;51.532;6.766;2022-08-03T05:03:29;18.10;99.90
9980;DHT22;5030;51.532;6.766;2022-08-03T05:05:56;18.20;99.90
9980;DHT22;5030;51.532;6.766;2022-08-03T05:08:22;18.30;1.00
9980;DHT22;5030;51.532;6.766;2022-08-03T05:10:47;18.40;99.90
9980;DHT22;5030;51.532;6.766;2022-08-03T05:13:13;18.50;1.00
9980;DHT22;5030;51.532;6.766;2022-08-03T05:15:39;18.50;1.00
9980;DHT22;5030;51.532;6.766;2022-08-03T05:18:06;18.60;1.00
9980;DHT22;5030;51.532;6.766;2022-08-03T05:20:32;18.70;99.90
9980;DHT22;5030;51.532;6.766;2022-08-03T05:22:57;18.80;99.90
9980;DHT22;5030;51.532;6.766;2022-08-03T05:25:26;18.90;99.90
9980;DHT22;5030;51.532;6.766;2022-08-03T05:27:51;19.00;1.00
9980;DHT22;5030;51.532;6.766;2022-08-03T05:30:19;19.10;1.00
9980;DHT22;5030;51.532;6.766;2022-08-03T05:32:44;19.10;1.00
9980;DHT22;5030;51.532;6.766;2022-08-03T05:35:10;19.30;99.90
9980;DHT22;5030;51.532;6.766;2022-08-03T05:37:36;19.30;99.90
9980;DHT22;5030;51.532;6.766;2022-08-03T05:40:02;19.40;88.70
9980;DHT22;5030;51.532;6.766;2022-08-03T05:42:28;19.50;1.00
9980;DHT22;5030;51.532;6.766;2022-08-03T05:44:55;19.60;1.00
9980;DHT22;5030;51.532;6.766;2022-08-03T05:47:21;19.60;1.00
9980;DHT22;5030;51.532;6.766;2022-08-03T05:49:47;19.60;1.00
9980;DHT22;5030;51.532;6.766;2022-08-03T05:52:12;19.70;1.00
9980;DHT22;5030;51.532;6.766;2022-08-03T05:54:38;19.80;1.00
9980;DHT22;5030;51.532;6.766;2022-08-03T05:57:04;19.90;99.90
9980;DHT22;5030;51.532;6.766;2022-08-03T05:59:29;20.00;99.90
9980;DHT22;5030;51.532;6.766;2022-08-03T06:01:55;20.00;58.70
9980;DHT22;5030;51.532;6.766;2022-08-03T06:04:21;20.10;1.00
9980;DHT22;5030;51.532;6.766;2022-08-03T06:06:47;20.10;99.90
9980;DHT22;5030;51.532;6.766;2022-08-03T06:09:13;20.20;99.90
9980;DHT22;5030;51.532;6.766;2022-08-03T06:11:39;20.30;99.90
9980;DHT22;5030;51.532;6.766;2022-08-03T06:14:06;20.30;99.90
9980;DHT22;5030;51.532;6.766;2022-08-03T06:16:32;20.30;99.90
9980;DHT22;5030;51.532;6.766;2022-08-03T06:18:58;20.40;99.90
9980;DHT22;5030;51.532;6.766;2022-08-03T06:21:24;20.60;99.90
9980;DHT22;5030;51.532;6.766;2022-08-03T06:23:49;20.70;99.90
9980;DHT22;5030;51.532;6.766;2022-08-03T06:26:15;20.70;99.90
9980;DHT22;5030;51.532;6.766;2022-08-03T06:28:43;20.80;99.90
9980;DHT22;5030;51.532;6.766;2022-08-03T06:31:09;20.80;99.90
9980;DHT22;5030;51.532;6.766;2022-08-03T06:33:34;20.90;99.90
9980;DHT22;5030;51.532;6.766;2022-08-03T06:36:00;21.10;99.90
9980;DHT22;5030;51.532;6.766;2022-08-03T06:38:26;21.10;99.90
9980;DHT22;5030;51.532;6.766;2022-08-03T06:40:53;21.20;99.90
9980;DHT22;5030;51.532;6.766;2022-08-03T06:43:19;21.30;99.90
9980;DHT22;5030;51.532;6.766;2022-08-03T06:45:45;21.30;99.90
9980;DHT22;5030;51.532;6.766;2022-08-03T06:48:11;21.30;99.90
9980;DHT22;5030;51.532;6.766;2022-08-03T06:50:39;21.40;99.90
9980;DHT22;5030;51.532;6.766;2022-08-03T06:53:06;21.40;99.90
9980;DHT22;5030;51.532;6.766;2022-08-03T06:55:32;21.60;99.90
9980;DHT22;5030;51.532;6.766;2022-08-03T06:57:58;21.70;99.90
9980;DHT22;5030;51.532;6.766;2022-08-03T07:00:24;21.90;99.90
9980;DHT22;5030;51.532;6.766;2022-08-03T07:02:50;22.10;99.90
9980;DHT22;5030;51.532;6.766;2022-08-03T07:05:16;22.10;99.90
9980;DHT22;5030;51.532;6.766;2022-08-03T07:07:42;22.10;99.90
9980;DHT22;5030;51.532;6.766;2022-08-03T07:10:09;22.20;99.90
9980;DHT22;5030;51.532;6.766;2022-08-03T07:12:36;22.30;99.90
9980;DHT22;5030;51.532;6.766;2022-08-03T07:15:04;22.30;99.90
9980;DHT22;5030;51.532;6.766;2022-08-03T07:17:33;22.40;99.90
9980;DHT22;5030;51.532;6.766;2022-08-03T07:19:59;22.40;99.90
9980;DHT22;5030;51.532;6.766;2022-08-03T07:22:26;22.40;99.90
9980;DHT22;5030;51.532;6.766;2022-08-03T07:24:51;22.50;99.90
9980;DHT22;5030;51.532;6.766;2022-08-03T07:27:17;22.80;99.90
9980;DHT22;5030;51.532;6.766;2022-08-03T07:29:43;23.10;99.90
9980;DHT22;5030;51.532;6.766;2022-08-03T07:32:08;23.30;99.90
9980;DHT22;5030;51.532;6.766;2022-08-03T07:34:34;23.60;99.90
9980;DHT22;5030;51.532;6.766;2022-08-03T07:37:00;23.70;99.90
9980;DHT22;5030;51.532;6.766;2022-08-03T07:39:25;23.90;99.90
9980;DHT22;5030;51.532;6.766;2022-08-03T07:41:51;24.00;99.90
9980;DHT22;5030;51.532;6.766;2022-08-03T07:44:20;23.90;99.90
9980;DHT22;5030;51.532;6.766;2022-08-03T07:46:46;24.00;99.90
9980;DHT22;5030;51.532;6.766;2022-08-03T07:49:12;23.90;99.90
9980;DHT22;5030;51.532;6.766;2022-08-03T07:51:38;24.10;99.90
9980;DHT22;5030;51.532;6.766;2022-08-03T07:54:04;24.10;99.90
9980;DHT22;5030;51.532;6.766;2022-08-03T07:56:30;24.20;99.90
9980;DHT22;5030;51.532;6.766;2022-08-03T07:58:55;24.30;99.90
9980;DHT22;5030;51.532;6.766;2022-08-03T08:01:22;24.50;99.00
9980;DHT22;5030;51.532;6.766;2022-08-03T08:03:49;24.40;99.90
9980;DHT22;5030;51.532;6.766;2022-08-03T08:06:15;24.60;95.50
9980;DHT22;5030;51.532;6.766;2022-08-03T08:08:42;24.60;95.30
9980;DHT22;5030;51.532;6.766;2022-08-03T08:11:08;24.50;98.80
9980;DHT22;5030;51.532;6.766;2022-08-03T08:13:33;24.70;96.60
9980;DHT22;5030;51.532;6.766;2022-08-03T08:15:59;24.90;95.10
9980;DHT22;5030;51.532;6.766;2022-08-03T08:18:25;25.00;92.30
9980;DHT22;5030;51.532;6.766;2022-08-03T08:20:54;24.90;93.30
9980;DHT22;5030;51.532;6.766;2022-08-03T08:23:19;24.90;93.40
9980;DHT22;5030;51.532;6.766;2022-08-03T08:25:49;24.80;96.40
9980;DHT22;5030;51.532;6.766;2022-08-03T08:28:19;25.10;91.00
9980;DHT22;5030;51.532;6.766;2022-08-03T08:30:45;25.10;88.20
9980;DHT22;5030;51.532;6.766;2022-08-03T08:33:11;25.20;89.90
9980;DHT22;5030;51.532;6.766;2022-08-03T08:35:37;25.30;89.10
9980;DHT22;5030;51.532;6.766;2022-08-03T08:38:03;25.50;84.90
9980;DHT22;5030;51.532;6.766;2022-08-03T08:40:29;25.50;82.80
9980;DHT22;5030;51.532;6.766;2022-08-03T08:42:55;25.50;82.90
9980;DHT22;5030;51.532;6.766;2022-08-03T08:45:22;25.60;85.70
9980;DHT22;5030;51.532;6.766;2022-08-03T08:47:48;25.70;82.30
9980;DHT22;5030;51.532;6.766;2022-08-03T08:50:19;25.80;80.00
9980;DHT22;5030;51.532;6.766;2022-08-03T08:52:49;25.90;79.60
9980;DHT22;5030;51.532;6.766;2022-08-03T08:55:19;26.10;76.50
9980;DHT22;5030;51.532;6.766;2022-08-03T08:57:52;26.00;68.80
9980;DHT22;5030;51.532;6.766;2022-08-03T09:00:21;26.20;66.60
9980;DHT22;5030;51.532;6.766;2022-08-03T09:02:47;26.30;62.20
9980;DHT22;5030;51.532;6.766;2022-08-03T09:05:17;26.30;62.20
9980;DHT22;5030;51.532;6.766;2022-08-03T09:07:45;26.30;72.20
9980;DHT22;5030;51.532;6.766;2022-08-03T09:10:12;26.40;67.10
9980;DHT22;5030;51.532;6.766;2022-08-03T09:12:43;26.40;60.50
9980;DHT22;5030;51.532;6.766;2022-08-03T09:15:28;26.40;66.80
9980;DHT22;5030;51.532;6.766;2022-08-03T09:18:00;26.60;56.90
9980;DHT22;5030;51.532;6.766;2022-08-03T09:20:28;26.70;59.40
9980;DHT22;5030;51.532;6.766;2022-08-03T09:23:01;26.80;45.70
9980;DHT22;5030;51.532;6.766;2022-08-03T09:25:34;27.00;46.30
9980;DHT22;5030;51.532;6.766;2022-08-03T09:28:06;27.00;35.80
9980;DHT22;5030;51.532;6.766;2022-08-03T09:30:33;27.10;42.50
9980;DHT22;5030;51.532;6.766;2022-08-03T09:33:04;27.20;30.20
9980;DHT22;5030;51.532;6.766;2022-08-03T09:35:30;27.20;35.80
9980;DHT22;5030;51.532;6.766;2022-08-03T09:38:10;27.30;26.50
9980;DHT22;5030;51.532;6.766;2022-08-03T09:40:36;27.30;23.20
9980;DHT22;5030;51.532;6.766;2022-08-03T09:43:01;27.30;24.20
9980;DHT22;5030;51.532;6.766;2022-08-03T09:45:27;27.40;27.60
9980;DHT22;5030;51.532;6.766;2022-08-03T09:47:54;27.60;25.70
9980;DHT22;5030;51.532;6.766;2022-08-03T09:50:21;27.60;28.70
9980;DHT22;5030;51.532;6.766;2022-08-03T09:52:47;27.80;14.30
9980;DHT22;5030;51.532;6.766;2022-08-03T09:55:15;27.90;1.00
9980;DHT22;5030;51.532;6.766;2022-08-03T09:57:41;28.10;5.80
9980;DHT22;5030;51.532;6.766;2022-08-03T10:00:12;28.10;1.00
9980;DHT22;5030;51.532;6.766;2022-08-03T10:02:40;28.20;1.00
9980;DHT22;5030;51.532;6.766;2022-08-03T10:05:07;28.30;2.80
9980;DHT22;5030;51.532;6.766;2022-08-03T10:07:48;28.30;3.60
9980;DHT22;5030;51.532;6.766;2022-08-03T10:10:16;28.20;1.00
9980;DHT22;5030;51.532;6.766;2022-08-03T10:12:42;28.30;1.00
9980;DHT22;5030;51.532;6.766;2022-08-03T10:15:09;28.60;1.00
9980;DHT22;5030;51.532;6.766;2022-08-03T10:17:36;28.60;1.00
9980;DHT22;5030;51.532;6.766;2022-08-03T10:20:03;28.70;1.00
9980;DHT22;5030;51.532;6.766;2022-08-03T10:22:35;28.60;1.00
9980;DHT22;5030;51.532;6.766;2022-08-03T10:25:07;28.90;1.00
9980;DHT22;5030;51.532;6.766;2022-08-03T10:27:38;29.10;1.00
9980;DHT22;5030;51.532;6.766;2022-08-03T10:30:09;29.20;1.00
9980;DHT22;5030;51.532;6.766;2022-08-03T10:32:54;28.90;1.00
9980;DHT22;5030;51.532;6.766;2022-08-03T10:35:23;29.00;1.00
9980;DHT22;5030;51.532;6.766;2022-08-03T10:38:02;29.00;1.00
9980;DHT22;5030;51.532;6.766;2022-08-03T10:40:30;28.90;1.00
9980;DHT22;5030;51.532;6.766;2022-08-03T10:43:02;29.10;1.00
9980;DHT22;5030;51.532;6.766;2022-08-03T10:45:35;29.30;1.00
9980;DHT22;5030;51.532;6.766;2022-08-03T10:48:05;29.60;1.00
9980;DHT22;5030;51.532;6.766;2022-08-03T10:50:31;29.80;1.00
9980;DHT22;5030;51.532;6.766;2022-08-03T10:53:04;29.70;1.00
9980;DHT22;5030;51.532;6.766;2022-08-03T11:01:07;30.00;1.00
9980;DHT22;5030;51.532;6.766;2022-08-03T11:03:33;29.90;1.00
9980;DHT22;5030;51.532;6.766;2022-08-03T11:06:25;30.10;1.00
9980;DHT22;5030;51.532;6.766;2022-08-03T11:11:40;29.90;1.00
9980;DHT22;5030;51.532;6.766;2022-08-03T11:14:19;29.90;1.00
9980;DHT22;5030;51.532;6.766;2022-08-03T11:19:21;30.10;1.00
9980;DHT22;5030;51.532;6.766;2022-08-03T11:35:28;30.50;1.00
9980;DHT22;5030;51.532;6.766;2022-08-03T11:40:51;30.30;1.00
9980;DHT22;5030;51.532;6.766;2022-08-03T11:46:08;30.70;1.00
9980;DHT22;5030;51.532;6.766;2022-08-03T11:48:43;30.70;1.00
9980;DHT22;5030;51.532;6.766;2022-08-03T11:51:26;30.80;1.00
9980;DHT22;5030;51.532;6.766;2022-08-03T11:53:56;31.10;1.00
9980;DHT22;5030;51.532;6.766;2022-08-03T11:56:22;31.30;1.00
9980;DHT22;5030;51.532;6.766;2022-08-03T11:58:53;31.40;1.00
9980;DHT22;5030;51.532;6.766;2022-08-03T12:01:21;31.30;1.00
9980;DHT22;5030;51.532;6.766;2022-08-03T12:03:48;31.20;1.00
9980;DHT22;5030;51.532;6.766;2022-08-03T12:06:15;31.40;1.00
9980;DHT22;5030;51.532;6.766;2022-08-03T12:08:42;31.40;1.00
9980;DHT22;5030;51.532;6.766;2022-08-03T12:11:10;31.40;1.00
9980;DHT22;5030;51.532;6.766;2022-08-03T12:16:03;31.30;1.00
9980;DHT22;5030;51.532;6.766;2022-08-03T12:18:29;31.40;1.00
9980;DHT22;5030;51.532;6.766;2022-08-03T12:21:07;31.90;1.00
9980;DHT22;5030;51.532;6.766;2022-08-03T12:23:34;32.20;1.00
9980;DHT22;5030;51.532;6.766;2022-08-03T12:26:05;32.40;1.00
9980;DHT22;5030;51.532;6.766;2022-08-03T12:28:31;32.30;1.00
9980;DHT22;5030;51.532;6.766;2022-08-03T12:31:01;32.10;1.00
9980;DHT22;5030;51.532;6.766;2022-08-03T12:33:28;31.90;1.00
9980;DHT22;5030;51.532;6.766;2022-08-03T12:36:08;31.90;1.00
9980;DHT22;5030;51.532;6.766;2022-08-03T12:38:35;32.20;1.00
9980;DHT22;5030;51.532;6.766;2022-08-03T12:41:04;32.30;1.00
9980;DHT22;5030;51.532;6.766;2022-08-03T12:43:31;32.30;1.00
9980;DHT22;5030;51.532;6.766;2022-08-03T12:46:30;32.10;1.00
9980;DHT22;5030;51.532;6.766;2022-08-03T12:49:04;32.40;1.00
9980;DHT22;5030;51.532;6.766;2022-08-03T12:51:32;32.40;1.00
9980;DHT22;5030;51.532;6.766;2022-08-03T12:54:00;32.60;1.00
9980;DHT22;5030;51.532;6.766;2022-08-03T12:56:26;32.70;1.00
9980;DHT22;5030;51.532;6.766;2022-08-03T12:58:52;32.70;1.00
9980;DHT22;5030;51.532;6.766;2022-08-03T13:01:18;32.50;1.00
9980;DHT22;5030;51.532;6.766;2022-08-03T13:03:51;32.30;1.00
9980;DHT22;5030;51.532;6.766;2022-08-03T13:06:23;32.10;1.00
9980;DHT22;5030;51.532;6.766;2022-08-03T13:09:01;31.90;1.00
9980;DHT22;5030;51.532;6.766;2022-08-03T13:11:27;31.90;1.00
9980;DHT22;5030;51.532;6.766;2022-08-03T13:13:53;32.60;1.00
9980;DHT22;5030;51.532;6.766;2022-08-03T13:16:20;32.70;1.00
9980;DHT22;5030;51.532;6.766;2022-08-03T13:18:47;32.50;1.00
9980;DHT22;5030;51.532;6.766;2022-08-03T13:21:18;32.60;1.00
9980;DHT22;5030;51.532;6.766;2022-08-03T13:23:44;32.60;1.00
9980;DHT22;5030;51.532;6.766;2022-08-03T13:26:11;32.80;1.00
9980;DHT22;5030;51.532;6.766;2022-08-03T13:28:40;32.90;1.00
9980;DHT22;5030;51.532;6.766;2022-08-03T13:31:06;32.60;1.00
9980;DHT22;5030;51.532;6.766;2022-08-03T13:33:32;32.10;1.00
9980;DHT22;5030;51.532;6.766;2022-08-03T13:35:58;32.10;1.00
9980;DHT22;5030;51.532;6.766;2022-08-03T13:38:23;32.30;1.00
9980;DHT22;5030;51.532;6.766;2022-08-03T13:40:51;32.50;1.00
9980;DHT22;5030;51.532;6.766;2022-08-03T13:43:18;32.60;1.00
9980;DHT22;5030;51.532;6.766;2022-08-03T13:45:43;32.80;1.00
9980;DHT22;5030;51.532;6.766;2022-08-03T13:48:09;32.80;1.00
9980;DHT22;5030;51.532;6.766;2022-08-03T13:50:35;33.10;1.00
9980;DHT22;5030;51.532;6.766;2022-08-03T13:53:00;33.30;1.00
9980;DHT22;5030;51.532;6.766;2022-08-03T13:55:26;33.50;1.00
9980;DHT22;5030;51.532;6.766;2022-08-03T13:57:52;33.90;1.00
9980;DHT22;5030;51.532;6.766;2022-08-03T14:00:19;34.00;1.00
9980;DHT22;5030;51.532;6.766;2022-08-03T14:02:48;33.90;1.00
9980;DHT22;5030;51.532;6.766;2022-08-03T14:05:14;33.90;1.00
9980;DHT22;5030;51.532;6.766;2022-08-03T14:07:39;33.60;1.00
9980;DHT22;5030;51.532;6.766;2022-08-03T14:10:05;33.10;1.00
9980;DHT22;5030;51.532;6.766;2022-08-03T14:12:31;32.80;1.00
9980;DHT22;5030;51.532;6.766;2022-08-03T14:14:57;33.40;1.00
9980;DHT22;5030;51.532;6.766;2022-08-03T14:17:22;33.40;1.00
9980;DHT22;5030;51.532;6.766;2022-08-03T14:19:48;33.80;1.00
9980;DHT22;5030;51.532;6.766;2022-08-03T14:22:14;33.60;1.00
9980;DHT22;5030;51.532;6.766;2022-08-03T14:24:39;33.60;1.00
9980;DHT22;5030;51.532;6.766;2022-08-03T14:27:05;34.20;1.00
9980;DHT22;5030;51.532;6.766;2022-08-03T14:29:30;34.50;1.00
9980;DHT22;5030;51.532;6.766;2022-08-03T14:31:56;34.40;1.00
9980;DHT22;5030;51.532;6.766;2022-08-03T14:34:22;34.20;1.00
9980;DHT22;5030;51.532;6.766;2022-08-03T14:36:47;33.80;1.00
